Pagrindinis puslapis
METAR-TAF:

METAR-TAF

Oro uostai :

Boscombe Down, Anglija

platuma: 51-10N, ilguma: 001-45W, Aukštis: 124 m

Dabartinis oras

Ataskaita buvo paskelbta 15 minutes, ne 10:20 UTC
Vėjas 12 kt iš Šiaurės Rytų
Temperatūra 7°C
Drėgmė 70%
Slėgis 1032 hPa
Matomumas 10 km arba daugiau
Išsisklaidę debesys ne aukštis 2300 ft
Išsisklaidę debesys ne aukštis 3300 ft

METAR: EGDM 311020Z 05012KT 9999 SCT023 SCT033 07/02 Q1032 BECMG SCT025 RMK WHT BECMG BLU

Laikas: 11:35 (10:35 UTC)

Prognozė

Ataskaita buvo paskelbta 3 valandos ir 19 minutes, ne 07:16 UTC
Prognozė galioja nuo 31 metu 09 UTC su 31 metu 16 UTC
Vėjas 12 kt iš Rytų/Šiaurės Rytų
Matomumas 10 km arba daugiau
Mažai debesys ne aukštis 2400 ft
Laikinai
nuo 31 metu 09 UTC su 31 metu 10 UTC
Išsisklaidę debesys ne aukštis 2400 ft
Tikimybė 40% :
Laikinai
nuo 31 metu 09 UTC su 31 metu 13 UTC
Vėjas 15 kt iš Rytų/Šiaurės Rytų su gūsio iki 25 kt

TAF: EGDM 310716Z 3109/3116 06012KT 9999 FEW024 TEMPO 3109/3110 SCT024 PROB40 TEMPO 3109/3113 06015G25KT

Orai ataskaitas ir orų prognozės (METAR, TAF).

turimą stotys yra geltonos ir raudonos taškus žemėlapyje.

Perkelti pele per norėdami pamatyti stoties vardą.

Tada spustelėkite, norėdami matyti oro stebėjimo ir prognozės.

Norėdami pakeisti žemėlapį: spustelėkite ant žalios mygtukų su juodo kryžiaus žemyn,; žalią mygtuką su brūkšneliu, jei norite nutolinti; arba žalių rodyklių gretimoms žemėlapius.


METAR-TAF: